createdAt,value
2022-11-28T00:01:34.394Z,6.83
2022-11-28T00:04:03.236Z,7.33
2022-11-28T00:06:31.363Z,7.23
2022-11-28T00:09:00.284Z,6.60
2022-11-28T00:11:28.699Z,8.13
2022-11-28T00:13:56.871Z,7.27
2022-11-28T00:16:25.213Z,9.23
2022-11-28T00:18:55.779Z,7.90
2022-11-28T00:21:26.045Z,6.07
2022-11-28T00:23:54.424Z,7.50
2022-11-28T00:26:24.266Z,7.40
2022-11-28T00:28:52.238Z,7.40
2022-11-28T00:31:23.854Z,6.83
2022-11-28T00:33:52.209Z,7.47
2022-11-28T00:36:22.283Z,5.97
2022-11-28T00:38:51.478Z,7.10
2022-11-28T00:41:21.721Z,6.50
2022-11-28T00:43:50.772Z,5.97
2022-11-28T00:46:19.989Z,7.87
2022-11-28T00:48:48.142Z,5.63
2022-11-28T00:51:17.721Z,4.43
2022-11-28T00:53:48.439Z,4.10
2022-11-28T00:56:21.872Z,5.83
2022-11-28T00:58:50.068Z,4.33
2022-11-28T01:01:19.846Z,4.37
2022-11-28T01:03:48.487Z,4.53
2022-11-28T01:06:22.520Z,4.77
2022-11-28T01:08:52.414Z,4.67
2022-11-28T01:11:20.533Z,5.17
2022-11-28T01:13:48.823Z,4.10
2022-11-28T01:16:17.252Z,5.20
2022-11-28T01:18:45.365Z,4.20
2022-11-28T01:21:13.249Z,7.73
2022-11-28T01:23:41.104Z,4.90
2022-11-28T01:26:15.897Z,4.47
2022-11-28T01:28:43.802Z,4.13
2022-11-28T01:31:15.666Z,4.80
2022-11-28T01:33:43.771Z,4.93
2022-11-28T01:36:13.070Z,3.93
2022-11-28T01:38:41.636Z,4.43
2022-11-28T01:41:11.710Z,4.87
2022-11-28T01:44:00.905Z,3.77
2022-11-28T01:46:29.251Z,3.57
2022-11-28T01:49:00.388Z,4.60
2022-11-28T01:51:28.862Z,3.20
2022-11-28T01:53:57.494Z,3.87
2022-11-28T01:56:30.974Z,4.77
2022-11-28T01:59:03.255Z,4.23
2022-11-28T02:01:31.312Z,3.50
2022-11-28T02:04:00.315Z,3.13
2022-11-28T02:06:29.313Z,3.27
2022-11-28T02:08:57.532Z,3.67
2022-11-28T02:11:48.878Z,3.27
2022-11-28T02:14:26.701Z,4.60
2022-11-28T02:17:10.056Z,4.07
2022-11-28T02:20:12.525Z,4.50
2022-11-28T02:22:50.482Z,4.63
2022-11-28T02:25:50.607Z,4.70
2022-11-28T02:28:45.216Z,3.60
2022-11-28T02:31:28.323Z,3.93
2022-11-28T02:34:01.550Z,4.63
2022-11-28T02:36:33.169Z,4.03
2022-11-28T02:39:09.663Z,4.73
2022-11-28T02:41:46.422Z,3.70
2022-11-28T02:44:17.751Z,4.03
2022-11-28T02:46:53.405Z,3.87
2022-11-28T02:49:27.476Z,5.90
2022-11-28T02:52:00.686Z,4.67
2022-11-28T02:54:31.617Z,3.43
2022-11-28T02:56:59.513Z,4.30
2022-11-28T02:59:34.032Z,5.30
2022-11-28T03:02:02.961Z,4.30
2022-11-28T03:04:39.583Z,4.00
2022-11-28T03:07:19.646Z,3.57
2022-11-28T03:10:02.441Z,3.80
2022-11-28T03:12:40.117Z,3.33
2022-11-28T03:15:10.275Z,5.03
2022-11-28T03:17:49.246Z,3.67
2022-11-28T03:20:23.748Z,4.47
2022-11-28T03:23:04.185Z,5.17
2022-11-28T03:25:37.516Z,3.87
2022-11-28T03:28:11.096Z,4.77
2022-11-28T03:30:44.319Z,3.67
2022-11-28T03:33:16.069Z,4.63
2022-11-28T03:35:50.237Z,3.43
2022-11-28T03:38:22.314Z,4.30
2022-11-28T03:40:53.974Z,4.50
2022-11-28T03:43:26.800Z,4.47
2022-11-28T03:45:59.280Z,5.27
2022-11-28T03:48:31.281Z,3.70
2022-11-28T03:51:07.467Z,3.90
2022-11-28T03:53:42.603Z,4.60
2022-11-28T03:56:15.528Z,4.00
2022-11-28T03:58:50.609Z,5.07
2022-11-28T04:01:29.944Z,5.30
2022-11-28T04:04:09.264Z,5.93
2022-11-28T04:06:51.046Z,4.63
2022-11-28T04:09:22.782Z,3.50
2022-11-28T04:11:55.049Z,4.90
2022-11-28T04:14:29.386Z,4.00
2022-11-28T04:17:04.801Z,5.00
2022-11-28T04:19:37.829Z,4.47
2022-11-28T04:22:13.369Z,4.10
2022-11-28T04:24:46.716Z,3.77
2022-11-28T04:27:18.790Z,4.53
2022-11-28T04:29:50.722Z,6.27
2022-11-28T04:32:20.503Z,3.80
2022-11-28T04:34:56.394Z,4.57
2022-11-28T04:37:28.421Z,4.60
2022-11-28T04:39:57.860Z,4.60
2022-11-28T04:42:31.874Z,4.33
2022-11-28T04:45:07.114Z,4.33
2022-11-28T04:47:35.289Z,4.67
2022-11-28T04:50:03.293Z,4.53
2022-11-28T04:52:40.055Z,5.20
2022-11-28T04:55:13.938Z,3.77
2022-11-28T04:57:44.696Z,5.37
2022-11-28T05:00:15.809Z,4.60
2022-11-28T05:02:46.287Z,5.07
2022-11-28T05:05:17.091Z,3.83
2022-11-28T05:07:46.414Z,4.27
2022-11-28T05:10:16.721Z,4.40
2022-11-28T05:12:44.583Z,4.63
2022-11-28T05:15:13.043Z,4.63
2022-11-28T05:17:42.621Z,5.13
2022-11-28T05:20:11.201Z,4.17
2022-11-28T05:22:39.092Z,4.73
2022-11-28T05:25:09.258Z,4.67
2022-11-28T05:27:37.348Z,4.23
2022-11-28T05:30:07.122Z,4.50
2022-11-28T05:32:36.231Z,5.03
2022-11-28T05:35:05.362Z,4.53
2022-11-28T05:37:33.429Z,5.37
2022-11-28T05:40:01.353Z,5.80
2022-11-28T05:42:33.332Z,3.90
2022-11-28T05:45:01.179Z,4.10
2022-11-28T05:47:31.616Z,3.83
2022-11-28T05:49:59.810Z,6.10
2022-11-28T05:52:32.135Z,4.13
2022-11-28T05:55:01.410Z,3.93
2022-11-28T05:57:33.186Z,5.07
2022-11-28T06:00:01.178Z,4.17
2022-11-28T06:02:29.096Z,3.90
2022-11-28T06:04:57.073Z,4.30
2022-11-28T06:07:25.099Z,3.67
2022-11-28T06:09:52.960Z,5.27
2022-11-28T06:12:20.874Z,3.80
2022-11-28T06:14:50.021Z,4.47
2022-11-28T06:17:17.914Z,4.90
2022-11-28T06:19:45.810Z,4.03
2022-11-28T06:22:13.638Z,6.07
2022-11-28T06:24:41.506Z,3.97
2022-11-28T06:27:09.333Z,5.10
2022-11-28T06:29:37.189Z,4.40
2022-11-28T06:32:06.501Z,4.17
2022-11-28T06:34:34.438Z,4.70
2022-11-28T06:37:02.355Z,4.97
2022-11-28T06:39:30.280Z,5.70
2022-11-28T06:41:58.139Z,7.27
2022-11-28T06:44:26.034Z,5.00
2022-11-28T06:46:54.584Z,4.97
2022-11-28T06:49:23.746Z,5.27
2022-11-28T06:51:51.613Z,4.87
2022-11-28T06:54:19.458Z,5.07
2022-11-28T06:56:47.363Z,5.80
2022-11-28T06:59:15.260Z,5.30
2022-11-28T07:01:43.133Z,4.83
2022-11-28T07:04:11.159Z,5.40
2022-11-28T07:06:40.342Z,7.30
2022-11-28T07:09:08.269Z,5.87
2022-11-28T07:11:36.278Z,5.07
2022-11-28T07:14:04.742Z,7.33
2022-11-28T07:16:34.739Z,6.23
2022-11-28T07:19:02.895Z,6.30
2022-11-28T07:21:31.321Z,5.70
2022-11-28T07:24:01.164Z,5.77
2022-11-28T07:26:29.022Z,7.07
2022-11-28T07:28:58.181Z,6.17
2022-11-28T07:31:28.786Z,6.20
2022-11-28T07:33:56.644Z,6.73
2022-11-28T07:36:26.603Z,6.70
2022-11-28T07:38:56.227Z,6.63
2022-11-28T07:41:27.233Z,6.73
2022-11-28T07:43:56.926Z,6.30
2022-11-28T07:46:25.629Z,6.90
2022-11-28T07:48:53.775Z,6.83
2022-11-28T07:51:23.413Z,7.57
2022-11-28T07:53:51.553Z,7.77
2022-11-28T07:56:23.414Z,7.80
2022-11-28T07:58:52.600Z,7.90
2022-11-28T08:01:22.520Z,7.77
2022-11-28T08:03:50.744Z,8.17
2022-11-28T08:06:20.379Z,7.10
2022-11-28T08:08:48.723Z,8.60
2022-11-28T08:11:18.628Z,8.40
2022-11-28T08:13:47.083Z,8.50
2022-11-28T08:16:18.257Z,8.97
2022-11-28T08:18:46.653Z,8.63
2022-11-28T08:21:17.117Z,8.77
2022-11-28T08:23:46.186Z,9.73
2022-11-28T08:26:15.709Z,10.67
2022-11-28T08:28:44.509Z,10.23
2022-11-28T08:31:14.596Z,12.47
2022-11-28T08:33:44.786Z,11.13
2022-11-28T08:36:14.935Z,10.30
2022-11-28T08:38:49.932Z,11.23
2022-11-28T08:41:31.014Z,10.97
2022-11-28T08:43:58.928Z,12.63
2022-11-28T08:46:26.806Z,12.00
2022-11-28T08:48:56.045Z,11.83
2022-11-28T08:51:24.861Z,12.50
2022-11-28T08:53:59.062Z,12.97
2022-11-28T08:56:27.595Z,12.23
2022-11-28T08:58:55.598Z,12.07
2022-11-28T09:01:25.178Z,14.47
2022-11-28T09:03:54.203Z,16.53
2022-11-28T09:06:24.468Z,12.73
2022-11-28T09:08:53.519Z,14.70
2022-11-28T09:11:23.325Z,12.63
2022-11-28T09:13:51.310Z,11.33
2022-11-28T09:16:19.635Z,11.20
2022-11-28T09:18:47.658Z,11.33
2022-11-28T09:21:16.679Z,13.07
2022-11-28T09:23:46.277Z,13.90
2022-11-28T09:26:16.755Z,20.40
2022-11-28T09:28:44.854Z,14.20
2022-11-28T09:31:14.299Z,10.97
2022-11-28T09:33:42.562Z,11.20
2022-11-28T09:36:13.372Z,11.23
2022-11-28T09:38:41.467Z,11.30
2022-11-28T09:41:32.571Z,11.90
2022-11-28T09:44:04.506Z,10.70
2022-11-28T09:46:36.013Z,13.27
2022-11-28T09:49:11.426Z,11.53
2022-11-28T09:51:48.425Z,11.37
2022-11-28T09:54:20.642Z,13.97
2022-11-28T09:56:51.328Z,12.97
2022-11-28T09:59:24.768Z,13.67
2022-11-28T10:01:59.578Z,12.53
2022-11-28T10:04:36.163Z,18.17
2022-11-28T10:07:12.567Z,15.77
2022-11-28T10:09:52.691Z,13.50
2022-11-28T10:12:33.985Z,12.00
2022-11-28T10:15:17.420Z,12.07
2022-11-28T10:17:54.252Z,13.13
2022-11-28T10:20:24.838Z,11.90
2022-11-28T10:22:56.466Z,12.90
2022-11-28T10:25:29.818Z,14.17
2022-11-28T10:27:59.236Z,18.27
2022-11-28T10:30:30.223Z,14.83
2022-11-28T10:33:04.850Z,15.17
2022-11-28T10:35:39.845Z,14.80
2022-11-28T10:38:12.515Z,14.43
2022-11-28T10:40:47.573Z,14.73
2022-11-28T10:43:27.527Z,16.47
2022-11-28T10:46:03.207Z,14.40
2022-11-28T10:48:41.661Z,16.10
2022-11-28T10:51:22.029Z,15.87
2022-11-28T10:54:01.874Z,13.10
2022-11-28T10:56:39.485Z,14.23
2022-11-28T10:59:22.198Z,16.10
2022-11-28T11:01:51.771Z,19.80
2022-11-28T11:04:21.547Z,15.93
2022-11-28T11:07:09.938Z,19.20
2022-11-28T11:09:40.927Z,17.33
2022-11-28T11:12:16.245Z,19.13
2022-11-28T11:14:45.428Z,18.83
2022-11-28T11:17:35.485Z,18.67
2022-11-28T11:20:20.158Z,23.13
2022-11-28T11:22:55.486Z,20.47
2022-11-28T11:25:24.917Z,19.60
2022-11-28T11:27:55.349Z,21.37
2022-11-28T11:30:28.876Z,20.83
2022-11-28T11:32:58.298Z,18.50
2022-11-28T11:35:28.198Z,16.37
2022-11-28T11:38:17.660Z,17.63
2022-11-28T11:40:45.767Z,20.27
2022-11-28T11:43:28.292Z,22.27
2022-11-28T11:46:16.229Z,25.03
2022-11-28T11:48:46.234Z,23.53
2022-11-28T11:51:23.989Z,20.97
2022-11-28T11:54:05.342Z,25.03
2022-11-28T11:56:37.638Z,23.47
2022-11-28T11:59:11.752Z,22.93
2022-11-28T12:01:43.183Z,24.37
2022-11-28T12:04:43.696Z,23.70
2022-11-28T12:07:18.969Z,21.57
2022-11-28T12:09:50.174Z,19.13
2022-11-28T12:12:22.546Z,21.57
2022-11-28T12:14:52.554Z,19.13
2022-11-28T12:17:48.964Z,14.00
2022-11-28T12:20:42.078Z,19.07
2022-11-28T12:23:25.952Z,22.13
2022-11-28T12:25:57.889Z,18.13
2022-11-28T12:28:39.479Z,17.73
2022-11-28T12:31:17.036Z,22.47
2022-11-28T12:33:57.342Z,25.63
2022-11-28T12:36:32.351Z,24.83
2022-11-28T12:39:05.297Z,23.83
2022-11-28T12:42:02.546Z,20.60
2022-11-28T12:44:44.688Z,23.03
2022-11-28T12:47:24.287Z,24.00
2022-11-28T12:50:03.779Z,23.37
2022-11-28T12:52:41.316Z,20.17
2022-11-28T12:55:22.252Z,22.93
2022-11-28T12:57:59.544Z,18.83
2022-11-28T13:00:30.256Z,27.13
2022-11-28T13:03:08.722Z,29.07
2022-11-28T13:05:52.810Z,25.40
2022-11-28T13:08:49.270Z,25.57
2022-11-28T13:11:30.883Z,30.00
2022-11-28T13:14:06.220Z,25.80
2022-11-28T13:16:42.797Z,27.70
2022-11-28T13:19:16.516Z,22.90
2022-11-28T13:21:50.442Z,25.50
2022-11-28T13:24:26.761Z,28.33
2022-11-28T13:27:05.573Z,29.00
2022-11-28T13:29:41.363Z,30.53
2022-11-28T13:32:16.772Z,27.87
2022-11-28T13:34:45.368Z,21.93
2022-11-28T13:40:18.631Z,26.47
2022-11-28T13:43:08.620Z,22.37
2022-11-28T13:45:39.635Z,26.10
2022-11-28T13:51:34.067Z,22.37
2022-11-28T13:54:48.729Z,26.93
2022-11-28T13:57:30.279Z,26.13
2022-11-28T14:00:03.048Z,26.47
2022-11-28T14:02:45.658Z,24.20
2022-11-28T14:05:33.155Z,22.10
2022-11-28T14:08:01.955Z,23.70
2022-11-28T14:10:50.449Z,22.03
2022-11-28T14:13:38.016Z,27.33
2022-11-28T14:16:20.916Z,21.77
2022-11-28T14:19:02.483Z,29.33
2022-11-28T14:21:40.365Z,24.50
2022-11-28T14:24:17.837Z,22.43
2022-11-28T14:26:46.910Z,22.80
2022-11-28T14:29:25.894Z,24.80
2022-11-28T14:32:28.041Z,21.63
2022-11-28T14:34:47.074Z,19.97
2022-11-28T14:37:55.996Z,25.17
2022-11-28T14:41:01.253Z,21.40
2022-11-28T14:43:30.958Z,24.40
2022-11-28T14:46:28.668Z,23.57
2022-11-28T14:49:23.919Z,21.57
2022-11-28T14:52:38.436Z,25.13
2022-11-28T14:55:19.181Z,24.93
2022-11-28T14:57:58.926Z,26.80
2022-11-28T15:00:29.651Z,25.93
2022-11-28T15:03:20.896Z,24.60
2022-11-28T15:05:51.829Z,28.17
2022-11-28T15:08:55.919Z,24.67
2022-11-28T15:11:39.132Z,25.57
2022-11-28T15:14:21.887Z,24.50
2022-11-28T15:16:53.697Z,20.50
2022-11-28T15:19:29.529Z,25.07
2022-11-28T15:21:58.042Z,26.77
2022-11-28T15:24:29.023Z,22.70
2022-11-28T15:26:58.789Z,23.87
2022-11-28T15:29:29.156Z,25.33
2022-11-28T15:31:58.787Z,24.87
2022-11-28T15:34:30.889Z,29.27
2022-11-28T15:37:00.593Z,25.37
2022-11-28T15:39:34.677Z,20.57
2022-11-28T15:42:05.651Z,19.33
2022-11-28T15:44:33.961Z,23.87
2022-11-28T15:47:02.457Z,26.80
2022-11-28T15:49:33.195Z,26.30
2022-11-28T15:52:03.254Z,22.17
2022-11-28T15:54:37.873Z,29.27
2022-11-28T15:57:07.182Z,19.13
2022-11-28T15:59:36.165Z,17.13
2022-11-28T16:02:12.592Z,20.13
2022-11-28T16:04:42.822Z,19.37
2022-11-28T16:07:16.221Z,21.13
2022-11-28T16:09:57.106Z,24.00
2022-11-28T16:12:25.371Z,20.07
2022-11-28T16:14:58.646Z,18.87
2022-11-28T16:17:29.374Z,26.50
2022-11-28T16:19:59.832Z,28.83
2022-11-28T16:22:33.030Z,20.70
2022-11-28T16:25:13.756Z,20.83
2022-11-28T16:27:45.377Z,26.80
2022-11-28T16:30:29.848Z,22.90
2022-11-28T16:32:58.048Z,24.53
2022-11-28T16:35:30.816Z,24.00
2022-11-28T16:38:15.106Z,16.60
2022-11-28T16:40:43.530Z,19.07
2022-11-28T16:43:22.000Z,23.83
2022-11-28T16:45:58.719Z,22.83
2022-11-28T16:48:29.430Z,25.43
2022-11-28T16:51:31.046Z,22.70
2022-11-28T16:53:59.752Z,21.30
2022-11-28T16:56:43.513Z,18.20
2022-11-28T16:59:14.094Z,28.43
2022-11-28T17:01:43.637Z,24.67
2022-11-28T17:04:21.806Z,23.67
2022-11-28T17:06:51.358Z,19.00
2022-11-28T17:09:19.882Z,26.93
2022-11-28T17:11:52.649Z,21.27
2022-11-28T17:14:20.581Z,36.40
2022-11-28T17:16:48.676Z,25.17
2022-11-28T17:19:16.546Z,25.87
2022-11-28T17:21:45.916Z,18.60
2022-11-28T17:24:18.973Z,24.17
2022-11-28T17:26:47.202Z,24.80
2022-11-28T17:29:16.587Z,23.00
2022-11-28T17:31:46.764Z,26.20
2022-11-28T17:34:17.295Z,26.80
2022-11-28T17:36:45.615Z,22.27
2022-11-28T17:39:13.793Z,24.90
2022-11-28T17:41:43.306Z,23.20
2022-11-28T17:44:17.258Z,20.37
2022-11-28T17:46:45.101Z,23.63
2022-11-28T17:49:13.592Z,20.17
2022-11-28T17:54:28.226Z,28.87
2022-11-28T17:56:58.464Z,27.03
2022-11-28T17:59:27.047Z,25.30
2022-11-28T18:01:55.110Z,28.57
2022-11-28T18:04:26.327Z,25.73
2022-11-28T18:06:54.489Z,20.40
2022-11-28T18:09:22.338Z,25.73
2022-11-28T18:11:51.566Z,25.00
2022-11-28T18:14:20.779Z,24.73
2022-11-28T18:16:49.278Z,27.07
2022-11-28T18:19:17.229Z,25.07
2022-11-28T18:21:45.100Z,26.13
2022-11-28T18:24:13.043Z,21.97
2022-11-28T18:26:42.187Z,20.87
2022-11-28T18:29:10.643Z,24.17
2022-11-28T18:31:40.212Z,21.90
2022-11-28T18:34:09.500Z,25.93
2022-11-28T18:36:38.878Z,25.30
2022-11-28T18:39:10.233Z,19.53
2022-11-28T18:41:39.811Z,23.27
2022-11-28T18:44:10.971Z,26.40
2022-11-28T18:46:40.723Z,21.20
2022-11-28T18:49:12.033Z,22.37
2022-11-28T18:51:39.893Z,24.73
2022-11-28T18:54:10.092Z,30.13
2022-11-28T18:56:38.022Z,20.57
2022-11-28T18:59:06.768Z,21.17
2022-11-28T19:01:35.981Z,22.27
2022-11-28T19:04:08.617Z,26.43
2022-11-28T19:06:37.461Z,19.77
2022-11-28T19:09:07.469Z,23.80
2022-11-28T19:11:35.525Z,24.30
2022-11-28T19:14:04.109Z,20.90
2022-11-28T19:16:35.056Z,21.20
2022-11-28T19:19:03.825Z,26.77
2022-11-28T19:21:35.334Z,28.53
2022-11-28T19:24:04.206Z,22.50
2022-11-28T19:26:33.862Z,23.37
2022-11-28T19:29:02.467Z,20.80
2022-11-28T19:31:32.563Z,26.10
2022-11-28T19:34:02.609Z,18.70
2022-11-28T19:36:37.249Z,21.57
2022-11-28T19:39:05.934Z,23.93
2022-11-28T19:41:34.111Z,21.50
2022-11-28T19:44:02.287Z,23.90
2022-11-28T19:46:35.431Z,29.43
2022-11-28T19:49:05.293Z,19.20
2022-11-28T19:51:35.395Z,23.43
2022-11-28T19:54:04.157Z,20.10
2022-11-28T19:56:34.376Z,25.50
2022-11-28T19:59:02.830Z,24.07
2022-11-28T20:01:30.781Z,29.43
2022-11-28T20:03:59.535Z,26.80
2022-11-28T20:06:29.356Z,24.00
2022-11-28T20:09:02.320Z,32.53
2022-11-28T20:11:32.257Z,30.07
2022-11-28T20:14:02.148Z,24.30
2022-11-28T20:16:31.168Z,21.00
2022-11-28T20:19:01.298Z,20.97
2022-11-28T20:21:30.272Z,22.20
2022-11-28T20:24:04.267Z,18.57
2022-11-28T20:26:35.608Z,17.37
2022-11-28T20:29:04.943Z,22.97
2022-11-28T20:31:35.411Z,20.13
2022-11-28T20:34:05.969Z,20.77
2022-11-28T20:36:34.724Z,22.77
2022-11-28T20:39:05.721Z,21.70
2022-11-28T20:41:34.413Z,19.00
2022-11-28T20:44:02.612Z,27.33
2022-11-28T20:46:32.247Z,28.27
2022-11-28T20:49:02.309Z,18.87
2022-11-28T20:51:32.223Z,26.53
2022-11-28T20:54:00.772Z,21.47
2022-11-28T20:56:41.814Z,22.77
2022-11-28T20:59:20.833Z,28.70
2022-11-28T21:01:49.281Z,20.57
2022-11-28T21:04:18.880Z,20.93
2022-11-28T21:06:49.091Z,21.67
2022-11-28T21:09:19.993Z,20.37
2022-11-28T21:11:57.352Z,21.20
2022-11-28T21:14:27.056Z,23.77
2022-11-28T21:16:55.808Z,23.30
2022-11-28T21:19:23.808Z,24.73
2022-11-28T21:21:51.700Z,19.43
2022-11-28T21:24:19.580Z,19.77
2022-11-28T21:26:53.494Z,19.53
2022-11-28T21:29:23.259Z,27.20
2022-11-28T21:31:51.270Z,23.67
2022-11-28T21:34:19.593Z,20.27
2022-11-28T21:36:47.723Z,25.50
2022-11-28T21:39:17.398Z,19.40
2022-11-28T21:41:45.714Z,24.53
2022-11-28T21:44:14.944Z,24.30
2022-11-28T21:46:43.693Z,23.20
2022-11-28T21:49:12.777Z,28.53
2022-11-28T21:51:41.409Z,29.10
2022-11-28T21:54:11.064Z,33.30
2022-11-28T21:56:39.220Z,32.87
2022-11-28T21:59:07.311Z,33.90
2022-11-28T22:01:36.705Z,42.37
2022-11-28T22:04:05.206Z,31.07
2022-11-28T22:06:33.874Z,34.53
2022-11-28T22:09:09.218Z,30.80
2022-11-28T22:11:51.432Z,39.67
2022-11-28T22:14:19.326Z,26.73
2022-11-28T22:16:48.575Z,33.53
2022-11-28T22:19:16.458Z,28.50
2022-11-28T22:21:53.973Z,33.70
2022-11-28T22:24:24.344Z,39.30
2022-11-28T22:26:52.246Z,30.73
2022-11-28T22:29:20.179Z,32.87
2022-11-28T22:31:51.022Z,31.23
2022-11-28T22:34:19.667Z,31.73
2022-11-28T22:36:47.615Z,34.87
2022-11-28T22:39:15.546Z,27.37
2022-11-28T22:41:43.503Z,32.10
2022-11-28T22:44:12.433Z,33.00
2022-11-28T22:46:40.601Z,30.57
2022-11-28T22:49:12.277Z,34.33
2022-11-28T22:51:41.461Z,29.80
2022-11-28T22:54:13.249Z,35.43
2022-11-28T22:56:41.852Z,31.33
2022-11-28T22:59:12.783Z,31.57
2022-11-28T23:01:41.310Z,31.13
2022-11-28T23:04:09.994Z,30.47
2022-11-28T23:06:39.368Z,27.90
2022-11-28T23:09:09.633Z,29.47
2022-11-28T23:11:39.281Z,27.87
2022-11-28T23:14:07.669Z,31.37
2022-11-28T23:16:38.435Z,30.27
2022-11-28T23:19:10.997Z,33.37
2022-11-28T23:21:42.845Z,33.80
2022-11-28T23:24:13.781Z,36.50
2022-11-28T23:26:42.219Z,34.70
2022-11-28T23:29:10.702Z,37.20
2022-11-28T23:31:41.631Z,39.47
2022-11-28T23:34:10.668Z,40.73
2022-11-28T23:36:43.098Z,48.13
2022-11-28T23:39:13.686Z,55.13
2022-11-28T23:41:41.945Z,30.87
2022-11-28T23:44:11.678Z,34.10
2022-11-28T23:46:40.431Z,34.50
2022-11-28T23:49:08.535Z,32.37
2022-11-28T23:51:36.750Z,46.00
2022-11-28T23:54:06.148Z,40.80
2022-11-28T23:56:35.756Z,41.97
2022-11-28T23:59:06.060Z,35.33
